Time;durP1;ratioP1;P1;durP2;ratioP2;P2;SDS_P1;SDS_P2;PMS_P1;PMS_P2;Temp;Humidity;BMP_temperature;BMP_pressure;BME280_temperature;BME280_humidity;BME280_pressure;Samples;Min_cycle;Max_cycle;Signal;HPM_P1;HPM_P2
2021/08/16 00:00:25;;;;;;;8.33;3.20;;;19.30;1.00;;;;;;5074936;28;20466;-79
2021/08/16 00:02:56;;;;;;;14.70;3.97;;;19.40;1.00;;;;;;5075016;28;20916;-79
2021/08/16 00:05:38;;;;;;;9.73;3.20;;;19.30;1.00;;;;;;5075846;28;20457;-81
2021/08/16 00:08:19;;;;;;;7.83;3.47;;;19.30;1.00;;;;;;5075006;28;20423;-81
2021/08/16 00:10:56;;;;;;;5.70;3.80;;;19.30;1.00;;;;;;5075294;28;20425;-81
2021/08/16 00:17:01;;;;;;;10.87;3.63;;;19.30;1.00;;;;;;5074819;28;20633;-81
2021/08/16 00:20:02;;;;;;;4.40;3.27;;;19.30;1.00;;;;;;5075348;28;20457;-81
2021/08/16 00:22:31;;;;;;;6.93;3.70;;;19.30;1.00;;;;;;5075078;28;20746;-80
2021/08/16 00:25:08;;;;;;;7.50;4.27;;;19.30;1.00;;;;;;5074738;28;20420;-79
2021/08/16 00:27:37;;;;;;;6.03;3.73;;;19.40;1.00;;;;;;5073679;28;20922;-80
2021/08/16 00:30:04;;;;;;;11.33;4.17;;;19.40;1.00;;;;;;5074939;28;20427;-79
2021/08/16 00:32:31;;;;;;;6.43;3.80;;;19.40;1.00;;;;;;5074247;28;20836;-79
2021/08/16 00:35:01;;;;;;;10.17;4.50;;;19.40;1.00;;;;;;5074755;28;20448;-79
2021/08/16 00:37:27;;;;;;;8.80;5.07;;;19.50;1.00;;;;;;5068626;28;20428;-80
2021/08/16 00:40:01;;;;;;;7.60;4.50;;;19.50;1.00;;;;;;5074603;28;20438;-79
2021/08/16 00:42:33;;;;;;;8.97;4.73;;;19.50;1.00;;;;;;5074673;28;20207;-79
2021/08/16 00:45:08;;;;;;;9.63;5.23;;;19.60;1.00;;;;;;5068807;28;20479;-79
2021/08/16 00:47:39;;;;;;;17.83;4.83;;;19.60;1.00;;;;;;5074470;28;20451;-79
2021/08/16 00:50:37;;;;;;;15.63;5.33;;;19.60;1.00;;;;;;5074788;28;20467;-79
2021/08/16 00:53:08;;;;;;;9.03;5.03;;;19.60;1.00;;;;;;5074435;28;20758;-81
2021/08/16 00:55:44;;;;;;;20.63;4.70;;;19.70;1.00;;;;;;5073046;28;20417;-81
2021/08/16 00:58:13;;;;;;;14.70;5.40;;;19.60;1.00;;;;;;5074288;28;20400;-81
2021/08/16 01:00:54;;;;;;;9.77;6.00;;;19.60;1.00;;;;;;5074261;28;20383;-81
2021/08/16 01:03:20;;;;;;;12.10;5.90;;;19.60;1.00;;;;;;5074068;28;20419;-81
2021/08/16 01:05:49;;;;;;;13.77;5.17;;;19.60;1.00;;;;;;5074488;28;20886;-81
2021/08/16 01:08:15;;;;;;;12.60;5.30;;;19.50;1.00;;;;;;5073700;28;20261;-81
2021/08/16 01:10:50;;;;;;;6.37;4.73;;;19.50;1.00;;;;;;5089705;28;20520;-81
2021/08/16 01:13:37;;;;;;;7.10;5.17;;;19.50;1.00;;;;;;5072773;28;20304;-81
2021/08/16 01:16:25;;;;;;;6.10;4.67;;;19.50;1.00;;;;;;5072675;28;20824;-81
2021/08/16 01:18:51;;;;;;;7.07;4.67;;;19.40;1.00;;;;;;5053954;28;20400;-81
2021/08/16 01:21:31;;;;;;;12.27;5.50;;;19.30;1.00;;;;;;5053084;28;20380;-81
2021/08/16 01:24:07;;;;;;;7.33;4.90;;;19.30;1.00;;;;;;5052636;28;20808;-81
2021/08/16 01:26:37;;;;;;;15.13;5.10;;;19.20;1.00;;;;;;5054047;28;20393;-81
2021/08/16 01:29:25;;;;;;;11.57;4.87;;;19.20;1.00;;;;;;5053723;28;20480;-80
2021/08/16 01:32:03;;;;;;;8.67;5.50;;;19.10;1.00;;;;;;5054137;28;20896;-81
2021/08/16 01:35:01;;;;;;;12.37;6.63;;;19.10;1.00;;;;;;5052307;28;20517;-81
2021/08/16 01:37:27;;;;;;;12.37;6.87;;;19.00;1.00;;;;;;5065225;28;20412;-80
2021/08/16 01:40:14;;;;;;;9.70;6.40;;;19.00;1.00;;;;;;5056369;28;20891;-79
2021/08/16 01:42:40;;;;;;;12.97;6.73;;;19.00;1.00;;;;;;5073756;28;20404;-79
2021/08/16 01:45:25;;;;;;;10.20;6.80;;;19.10;1.00;;;;;;5062131;28;20437;-79
2021/08/16 01:47:51;;;;;;;12.33;6.60;;;19.10;1.00;;;;;;5065684;28;20470;-79
2021/08/16 01:51:01;;;;;;;12.53;6.90;;;19.10;1.00;;;;;;5073639;28;20368;-80
2021/08/16 01:53:32;;;;;;;8.83;6.60;;;19.00;1.00;;;;;;5073805;28;20592;-79
2021/08/16 01:55:58;;;;;;;8.97;5.87;;;19.00;1.00;;;;;;5073328;28;20454;-79
2021/08/16 01:58:37;;;;;;;11.80;6.47;;;19.00;1.00;;;;;;5073184;28;20458;-79
2021/08/16 02:01:03;;;;;;;7.60;5.53;;;19.00;1.00;;;;;;5067067;28;20633;-79
2021/08/16 02:03:43;;;;;;;10.70;6.50;;;19.00;1.00;;;;;;5073284;28;20411;-79
2021/08/16 02:06:22;;;;;;;8.47;5.70;;;19.00;1.00;;;;;;5073799;28;20172;-80
2021/08/16 02:08:56;;;;;;;14.33;5.90;;;19.00;1.00;;;;;;5067262;28;20424;-79
2021/08/16 02:11:37;;;;;;;12.80;5.87;;;19.00;1.00;;;;;;5073798;28;20434;-79
2021/08/16 02:14:25;;;;;;;9.10;5.60;;;18.90;1.00;;;;;;5073377;28;20783;-79
2021/08/16 02:16:51;;;;;;;9.17;5.53;;;18.90;1.00;;;;;;5073304;28;20460;-79
2021/08/16 02:19:17;;;;;;;9.93;5.93;;;19.00;1.00;;;;;;5062106;28;20445;-79
2021/08/16 02:21:42;;;;;;;13.10;6.10;;;19.00;1.00;;;;;;5055731;28;20178;-80
2021/08/16 02:24:08;;;;;;;8.60;5.97;;;19.00;1.00;;;;;;5072719;28;20245;-80
2021/08/16 02:26:34;;;;;;;9.83;5.80;;;18.90;1.00;;;;;;5070561;28;20165;-80
2021/08/16 02:29:00;;;;;;;17.40;6.50;;;18.90;1.00;;;;;;5066622;28;20169;-80
2021/08/16 02:31:25;;;;;;;18.00;6.20;;;18.90;1.00;;;;;;5071936;28;20201;-80
2021/08/16 02:33:51;;;;;;;7.70;5.60;;;18.90;1.00;;;;;;5063342;28;20676;-80
2021/08/16 02:39:55;;;;;;;15.70;7.07;;;18.80;1.00;;;;;;5072100;28;20426;-79
2021/08/16 02:42:21;;;;;;;21.67;6.93;;;18.70;1.00;;;;;;5072974;28;20368;-79
2021/08/16 02:44:47;;;;;;;11.60;5.80;;;18.70;1.00;;;;;;5071254;28;20505;-79
2021/08/16 02:47:13;;;;;;;8.63;6.20;;;18.70;1.00;;;;;;5072810;28;20653;-79
2021/08/16 02:49:38;;;;;;;10.00;5.90;;;18.70;1.00;;;;;;5061575;28;20175;-79
2021/08/16 02:52:13;;;;;;;10.37;5.97;;;18.70;1.00;;;;;;5052995;28;20165;-80
2021/08/16 02:55:31;;;;;;;17.03;5.53;;;18.60;1.00;;;;;;5052686;28;20328;-80
2021/08/16 02:58:02;;;;;;;7.43;5.70;;;18.70;1.00;;;;;;5051747;28;20396;-79
2021/08/16 03:00:37;;;;;;;9.67;6.03;;;18.60;1.00;;;;;;5069295;28;20383;-79
2021/08/16 03:03:07;;;;;;;6.60;4.87;;;18.60;1.00;;;;;;5071463;28;20452;-79
2021/08/16 03:05:50;;;;;;;9.93;5.50;;;18.60;1.00;;;;;;5071659;28;20558;-79
2021/08/16 03:08:25;;;;;;;12.73;6.53;;;18.60;1.00;;;;;;5062394;28;20484;-79
2021/08/16 03:10:51;;;;;;;8.07;5.73;;;18.50;1.00;;;;;;5056423;28;20374;-79
2021/08/16 03:13:19;;;;;;;10.57;5.83;;;18.60;1.00;;;;;;5056185;28;20454;-79
2021/08/16 03:15:49;;;;;;;8.63;4.80;;;18.60;1.00;;;;;;5056315;28;20360;-79
2021/08/16 03:18:26;;;;;;;13.63;5.60;;;18.50;1.00;;;;;;5056240;28;20746;-79
2021/08/16 03:21:02;;;;;;;8.70;5.77;;;18.50;1.00;;;;;;5056202;28;20917;-79
2021/08/16 03:23:49;;;;;;;14.97;6.10;;;18.40;1.00;;;;;;5059529;28;20736;-81
2021/08/16 03:26:32;;;;;;;16.63;5.03;;;18.40;1.00;;;;;;5076411;28;20409;-81
2021/08/16 03:29:02;;;;;;;13.40;6.17;;;18.40;1.00;;;;;;5056030;28;20449;-81
2021/08/16 03:31:37;;;;;;;7.13;4.57;;;18.40;1.00;;;;;;5054759;28;20894;-81
2021/08/16 03:34:14;;;;;;;11.50;5.60;;;18.40;1.00;;;;;;5065372;28;20782;-81
2021/08/16 03:36:55;;;;;;;7.67;5.67;;;18.40;1.00;;;;;;5071790;28;20393;-80
2021/08/16 03:39:26;;;;;;;14.27;5.80;;;18.40;1.00;;;;;;5072147;28;20482;-79
2021/08/16 03:41:51;;;;;;;8.37;5.90;;;18.40;1.00;;;;;;5074567;28;20944;-79
2021/08/16 03:44:26;;;;;;;12.43;5.83;;;18.40;1.00;;;;;;5075316;28;20431;-79
2021/08/16 03:46:56;;;;;;;11.87;4.93;;;18.40;1.00;;;;;;5075694;28;20177;-80
2021/08/16 03:49:21;;;;;;;13.60;5.17;;;18.50;1.00;;;;;;5075601;28;20738;-79
2021/08/16 03:52:07;;;;;;;7.87;5.60;;;18.50;1.00;;;;;;5075699;28;20362;-80
2021/08/16 03:54:49;;;;;;;6.13;4.73;;;18.50;1.00;;;;;;5075862;28;20541;-81
2021/08/16 03:57:26;;;;;;;10.00;5.63;;;18.60;1.00;;;;;;5075476;28;20903;-81
2021/08/16 03:59:55;;;;;;;7.93;4.90;;;18.60;1.00;;;;;;5055559;28;20476;-81
2021/08/16 04:02:21;;;;;;;10.90;4.83;;;18.70;1.00;;;;;;5055289;28;20857;-81
2021/08/16 04:04:55;;;;;;;7.50;5.13;;;18.70;1.00;;;;;;5054193;28;20398;-81
2021/08/16 04:07:25;;;;;;;9.57;4.93;;;18.80;1.00;;;;;;5070415;28;20253;-81
2021/08/16 04:10:14;;;;;;;9.23;4.83;;;18.80;1.00;;;;;;5075123;28;20402;-81
2021/08/16 04:13:07;;;;;;;12.20;5.57;;;18.90;1.00;;;;;;5074496;28;20485;-82
2021/08/16 04:15:37;;;;;;;12.43;5.03;;;18.90;1.00;;;;;;5074903;28;20402;-79
2021/08/16 04:18:25;;;;;;;9.20;4.50;;;19.00;1.00;;;;;;5064843;28;20407;-85
2021/08/16 04:21:08;;;;;;;7.17;4.53;;;19.10;1.00;;;;;;5074653;28;20419;-84
2021/08/16 04:23:38;;;;;;;6.73;4.40;;;19.20;1.00;;;;;;5074132;28;20502;-84
2021/08/16 04:26:37;;;;;;;8.53;4.70;;;19.20;1.00;;;;;;5072280;28;20457;-84
2021/08/16 04:29:07;;;;;;;12.30;4.27;;;19.20;1.00;;;;;;5056805;28;20427;-84
2021/08/16 04:31:38;;;;;;;9.23;4.27;;;19.30;1.00;;;;;;5062703;28;20437;-85
2021/08/16 04:34:07;;;;;;;9.10;4.40;;;19.40;1.00;;;;;;5073648;28;20439;-84
2021/08/16 04:36:38;;;;;;;12.50;4.73;;;19.50;1.00;;;;;;5071722;28;20463;-84
2021/08/16 04:39:37;;;;;;;6.83;3.80;;;19.50;1.00;;;;;;5070675;28;20861;-84
2021/08/16 04:42:07;;;;;;;5.57;4.10;;;19.50;1.00;;;;;;5072948;28;20407;-79
2021/08/16 04:44:38;;;;;;;9.00;3.53;;;19.40;1.00;;;;;;5061990;28;20489;-79
2021/08/16 04:47:03;;;;;;;7.80;3.93;;;19.40;1.00;;;;;;5071075;28;20440;-78
2021/08/16 04:49:38;;;;;;;6.23;3.10;;;19.40;1.00;;;;;;5084929;28;20387;-78
2021/08/16 04:52:08;;;;;;;5.83;3.50;;;19.40;1.00;;;;;;5074325;28;20800;-78
2021/08/16 04:54:43;;;;;;;9.33;3.67;;;19.40;1.00;;;;;;5074861;28;20782;-79
2021/08/16 04:57:46;;;;;;;6.33;3.03;;;19.50;1.00;;;;;;5063040;28;20915;-80
2021/08/16 05:00:24;;;;;;;5.70;3.50;;;19.50;1.00;;;;;;5031982;28;20416;-82
2021/08/16 05:03:02;;;;;;;3.50;2.80;;;19.50;1.00;;;;;;5032271;28;20413;-82
2021/08/16 05:05:53;;;;;;;5.17;3.13;;;19.50;1.00;;;;;;5029884;28;20779;-81
2021/08/16 05:08:20;;;;;;;5.53;3.20;;;19.50;1.00;;;;;;5012765;28;20427;-86
2021/08/16 05:10:55;;;;;;;6.30;2.60;;;19.50;1.00;;;;;;5012469;28;20373;-79
2021/08/16 05:13:25;;;;;;;5.27;2.53;;;19.50;1.00;;;;;;5012556;28;20836;-79
2021/08/16 05:16:08;;;;;;;7.57;2.60;;;19.50;1.00;;;;;;5012245;28;20912;-80
2021/08/16 05:18:38;;;;;;;15.10;2.47;;;19.50;1.00;;;;;;5019684;28;20449;-82
2021/08/16 05:21:37;;;;;;;6.93;2.47;;;19.50;1.00;;;;;;5031941;28;20421;-83
2021/08/16 05:24:08;;;;;;;17.93;3.33;;;19.50;1.00;;;;;;5032233;28;20399;-81
2021/08/16 05:26:38;;;;;;;3.00;1.97;;;19.50;1.00;;;;;;5031455;28;20525;-82
2021/08/16 05:29:03;;;;;;;5.97;2.23;;;19.50;1.00;;;;;;5013002;28;20399;-89
2021/08/16 05:31:38;;;;;;;3.70;2.30;;;19.50;1.00;;;;;;5035535;28;20503;-88
2021/08/16 05:34:03;;;;;;;7.10;2.33;;;19.50;1.00;;;;;;5038270;28;20651;-87
2021/08/16 05:36:49;;;;;;;4.97;1.70;;;19.50;1.00;;;;;;5054614;28;20885;-88
2021/08/16 05:39:25;;;;;;;11.83;2.17;;;19.50;1.00;;;;;;5067025;28;20633;-85
2021/08/16 05:42:08;;;;;;;3.03;2.10;;;19.60;1.00;;;;;;5069446;28;20725;-85
2021/08/16 05:44:37;;;;;;;10.83;2.80;;;19.60;1.00;;;;;;5071066;28;20432;-85
2021/08/16 05:47:37;;;;;;;5.90;2.30;;;19.60;1.00;;;;;;5058091;28;20932;-84
2021/08/16 05:50:08;;;;;;;10.20;1.90;;;19.70;1.00;;;;;;5053945;28;20843;-84
2021/08/16 05:52:38;;;;;;;2.50;2.13;;;19.60;1.00;;;;;;5055035;28;20430;-84
2021/08/16 05:55:20;;;;;;;5.27;2.27;;;19.60;1.00;;;;;;5072824;28;20474;-88
2021/08/16 05:57:47;;;;;;;5.43;2.40;;;19.70;1.00;;;;;;5075074;28;20435;-82
2021/08/16 06:00:37;;;;;;;3.63;1.90;;;19.70;1.00;;;;;;5071336;28;20447;-83
2021/08/16 06:03:03;;;;;;;4.87;2.00;;;19.60;1.00;;;;;;5065464;28;20417;-82
2021/08/16 06:05:38;;;;;;;1.80;1.50;;;19.60;1.00;;;;;;5053756;28;20488;-82
2021/08/16 06:08:08;;;;;;;4.17;1.97;;;19.70;1.00;;;;;;5066702;28;20832;-84
2021/08/16 06:10:50;;;;;;;8.00;1.90;;;19.70;1.00;;;;;;5073805;28;20396;-87
2021/08/16 06:13:25;;;;;;;4.57;2.10;;;19.80;1.00;;;;;;5069042;28;20431;-80
2021/08/16 06:15:51;;;;;;;6.70;2.50;;;19.80;1.00;;;;;;5074357;28;20507;-80
2021/08/16 06:18:20;;;;;;;5.87;2.07;;;19.90;1.00;;;;;;5075834;28;20548;-81
2021/08/16 06:21:07;;;;;;;20.07;2.33;;;20.00;1.00;;;;;;5058864;28;20172;-80
2021/08/16 06:23:38;;;;;;;3.07;1.50;;;20.10;1.00;;;;;;5069446;28;20752;-79
2021/08/16 06:26:08;;;;;;;3.47;1.60;;;20.00;1.00;;;;;;5068349;28;20494;-79
2021/08/16 06:28:37;;;;;;;3.53;1.70;;;20.10;1.00;;;;;;5062261;28;20855;-78
2021/08/16 06:31:04;;;;;;;6.80;1.90;;;20.10;1.00;;;;;;5065704;28;20437;-78
2021/08/16 06:33:35;;;;;;;5.80;1.50;;;20.10;1.00;;;;;;5052973;28;20815;-79
2021/08/16 06:36:02;;;;;;;5.17;2.00;;;;;;;;;;5068027;28;20429;-78
2021/08/16 06:38:38;;;;;;;3.07;1.50;;;20.20;1.00;;;;;;5066085;28;20914;-78
2021/08/16 06:41:03;;;;;;;4.63;2.00;;;20.30;1.00;;;;;;5071528;28;20393;-79
2021/08/16 06:43:31;;;;;;;7.70;2.50;;;20.30;1.00;;;;;;5054422;28;20899;-79
2021/08/16 06:45:58;;;;;;;6.10;1.70;;;20.50;1.00;;;;;;5058621;28;20219;-79
2021/08/16 06:48:26;;;;;;;2.10;1.27;;;20.50;1.00;;;;;;5061894;28;20441;-78
2021/08/16 06:51:02;;;;;;;6.40;1.60;;;20.60;1.00;;;;;;5072171;28;20413;-78
2021/08/16 06:53:30;;;;;;;5.63;1.67;;;20.50;1.00;;;;;;5075231;28;20818;-78
2021/08/16 06:55:56;;;;;;;1.70;1.30;;;20.50;1.00;;;;;;5076599;28;20417;-78
2021/08/16 06:58:22;;;;;;;4.20;1.53;;;20.60;1.00;;;;;;5066033;28;20417;-78
2021/08/16 07:01:02;;;;;;;8.27;1.67;;;20.70;1.00;;;;;;5066805;28;20232;-79
2021/08/16 07:03:31;;;;;;;3.60;1.43;;;20.70;1.00;;;;;;5062806;28;20176;-81
2021/08/16 07:06:14;;;;;;;5.63;1.93;;;20.80;1.00;;;;;;5074894;28;20795;-82
2021/08/16 07:09:13;;;;;;;5.93;1.53;;;20.90;1.00;;;;;;5065912;28;20524;-80
2021/08/16 07:12:19;;;;;;;3.83;1.40;;;21.10;1.00;;;;;;5076121;28;20467;-81
2021/08/16 07:14:45;;;;;;;4.83;1.33;;;21.10;1.00;;;;;;5056584;28;20432;-82
2021/08/16 07:17:31;;;;;;;4.50;1.30;;;21.30;1.00;;;;;;5056470;28;20488;-82
2021/08/16 07:20:02;;;;;;;5.97;1.40;;;21.40;1.00;;;;;;5059754;28;20294;-81
2021/08/16 07:22:55;;;;;;;2.60;1.30;;;21.60;1.00;;;;;;5074146;28;20395;-82
2021/08/16 07:25:43;;;;;;;8.23;1.30;;;21.50;1.00;;;;;;5075195;28;20467;-82
2021/08/16 07:28:09;;;;;;;3.00;1.10;;;21.30;1.00;;;;;;5066731;28;20430;-81
2021/08/16 07:30:55;;;;;;;9.43;1.47;;;21.20;1.00;;;;;;5064839;28;20426;-81
2021/08/16 07:33:21;;;;;;;2.50;1.30;;;21.20;1.00;;;;;;5064018;28;20478;-78
2021/08/16 07:35:56;;;;;;;4.40;1.10;;;21.20;1.00;;;;;;5072599;28;20413;-78
2021/08/16 07:38:21;;;;;;;7.40;1.67;;;21.30;1.00;;;;;;5068913;28;20242;-79
2021/08/16 07:40:47;;;;;;;5.40;1.20;;;21.20;1.00;;;;;;5073126;28;20504;-79
2021/08/16 07:43:13;;;;;;;4.70;1.30;;;21.20;1.00;;;;;;5074871;28;20202;-78
2021/08/16 07:45:40;;;;;;;2.40;1.23;;;21.10;1.00;;;;;;5068858;28;20296;-82
2021/08/16 07:48:06;;;;;;;5.70;1.20;;;21.10;1.00;;;;;;5060043;28;20949;-82
2021/08/16 07:50:32;;;;;;;6.73;1.40;;;21.00;1.00;;;;;;5070080;28;20445;-82
2021/08/16 07:52:58;;;;;;;14.53;1.67;;;;;;;;;;5054667;28;20513;-82
2021/08/16 07:55:25;;;;;;;2.10;1.00;;;21.00;1.00;;;;;;5071399;28;20446;-81
2021/08/16 07:57:55;;;;;;;5.03;1.17;;;20.90;1.00;;;;;;5069947;28;20491;-81
2021/08/16 08:00:21;;;;;;;2.20;1.00;;;20.90;1.00;;;;;;5068667;28;20429;-81
2021/08/16 08:02:50;;;;;;;10.50;1.47;;;21.00;1.00;;;;;;5071121;28;20439;-81
2021/08/16 08:05:25;;;;;;;3.73;0.97;;;21.20;1.00;;;;;;5072768;28;20187;-82
2021/08/16 08:07:51;;;;;;;2.20;0.90;;;21.20;1.00;;;;;;5070232;28;20433;-81
2021/08/16 08:10:19;;;;;;;8.80;1.30;;;21.20;1.00;;;;;;5069310;28;20426;-79
2021/08/16 08:12:55;;;;;;;2.80;1.10;;;21.30;1.00;;;;;;5073178;28;20598;-81
2021/08/16 08:15:21;;;;;;;3.93;1.20;;;21.30;1.00;;;;;;5073502;28;20466;-78
2021/08/16 08:17:47;;;;;;;12.70;1.30;;;21.40;1.00;;;;;;5069640;28;20426;-78
2021/08/16 08:20:14;;;;;;;11.73;1.67;;;21.50;1.00;;;;;;5063261;28;20226;-78
2021/08/16 08:22:39;;;;;;;3.83;1.03;;;21.40;1.00;;;;;;5063486;28;20411;-78
2021/08/16 08:25:06;;;;;;;4.30;1.27;;;21.40;1.00;;;;;;5054572;28;20733;-79
2021/08/16 08:27:31;;;;;;;1.83;0.90;;;21.40;1.00;;;;;;5069474;28;20187;-78
2021/08/16 08:29:57;;;;;;;3.60;1.10;;;21.30;1.00;;;;;;5064240;28;20456;-78
2021/08/16 08:32:25;;;;;;;2.03;1.20;;;21.30;1.00;;;;;;5072436;28;20180;-78
2021/08/16 08:34:56;;;;;;;2.67;1.00;;;21.40;1.00;;;;;;5073901;28;20192;-78
2021/08/16 08:37:21;;;;;;;2.77;0.93;;;21.40;1.00;;;;;;5074043;28;20394;-78
2021/08/16 08:39:47;;;;;;;3.47;1.00;;;21.30;1.00;;;;;;5069772;28;20794;-78
2021/08/16 08:42:14;;;;;;;1.87;1.13;;;21.40;1.00;;;;;;5073043;28;20260;-77
2021/08/16 08:44:41;;;;;;;2.23;1.20;;;21.40;1.00;;;;;;5073384;28;20627;-78
2021/08/16 08:47:07;;;;;;;1.27;1.17;;;21.20;1.00;;;;;;5067202;28;20440;-78
2021/08/16 08:49:34;;;;;;;2.40;0.90;;;;;;;;;;5053769;28;20483;-78
2021/08/16 08:52:00;;;;;;;1.20;1.00;;;21.40;1.00;;;;;;5068317;28;20804;-78
2021/08/16 08:54:27;;;;;;;3.47;0.90;;;21.30;1.00;;;;;;5072277;28;20478;-78
2021/08/16 08:56:53;;;;;;;6.30;1.10;;;21.50;1.00;;;;;;5063651;28;20165;-79
2021/08/16 08:59:19;;;;;;;4.03;1.20;;;21.50;1.00;;;;;;5053416;28;20971;-79
2021/08/16 09:01:56;;;;;;;3.10;1.00;;;21.60;1.00;;;;;;5054833;28;20161;-79
2021/08/16 09:04:22;;;;;;;5.37;1.10;;;21.60;1.00;;;;;;5064429;28;20526;-79
2021/08/16 09:06:48;;;;;;;4.23;1.30;;;21.60;1.00;;;;;;5053329;28;20404;-79
2021/08/16 09:09:18;;;;;;;3.43;1.00;;;21.80;1.00;;;;;;5055740;28;20399;-80
2021/08/16 09:11:52;;;;;;;2.00;1.20;;;21.90;1.00;;;;;;5073474;28;20926;-79
2021/08/16 09:14:19;;;;;;;3.20;0.90;;;21.90;1.00;;;;;;5072438;28;20450;-79
2021/08/16 09:16:46;;;;;;;4.87;0.77;;;22.00;1.00;;;;;;5073134;28;20963;-79
2021/08/16 09:19:20;;;;;;;1.63;0.90;;;22.00;1.00;;;;;;5069379;28;20428;-79
2021/08/16 09:21:54;;;;;;;2.60;0.90;;;21.90;1.00;;;;;;5060522;28;20410;-79
2021/08/16 09:24:30;;;;;;;2.93;0.90;;;21.90;1.00;;;;;;5053478;28;20422;-79
2021/08/16 09:27:05;;;;;;;3.60;0.90;;;22.00;1.00;;;;;;5058873;28;20429;-79
2021/08/16 09:29:31;;;;;;;3.73;1.07;;;22.10;1.00;;;;;;5053299;28;20463;-80
2021/08/16 09:32:05;;;;;;;2.40;0.97;;;22.00;1.00;;;;;;5075105;28;20442;-79
2021/08/16 09:34:34;;;;;;;2.13;1.10;;;22.00;1.00;;;;;;5075642;28;20941;-79
2021/08/16 09:37:13;;;;;;;1.93;1.20;;;21.90;1.00;;;;;;5059567;28;20934;-79
2021/08/16 09:39:39;;;;;;;2.50;0.70;;;21.90;1.00;;;;;;5052762;28;20854;-79
2021/08/16 09:42:04;;;;;;;1.57;1.10;;;21.90;1.00;;;;;;5054154;28;20416;-79
2021/08/16 09:44:30;;;;;;;2.00;0.90;;;21.90;1.00;;;;;;5084269;28;20238;-79
2021/08/16 09:47:01;;;;;;;8.40;0.97;;;21.80;1.00;;;;;;5070785;28;20196;-79
2021/08/16 09:49:27;;;;;;;0.90;0.80;;;21.70;1.00;;;;;;5072862;28;20468;-79
2021/08/16 09:52:07;;;;;;;7.97;1.40;;;21.70;1.00;;;;;;5072222;28;20411;-79
2021/08/16 09:54:34;;;;;;;2.77;0.90;;;21.80;1.00;;;;;;5065156;28;20461;-79
2021/08/16 09:57:01;;;;;;;5.50;0.93;;;21.80;1.00;;;;;;5052938;28;20492;-79
2021/08/16 09:59:29;;;;;;;5.20;1.20;;;21.60;1.00;;;;;;5053674;28;20427;-80
2021/08/16 10:01:55;;;;;;;3.87;1.10;;;21.50;1.00;;;;;;5072211;28;20456;-80
2021/08/16 10:04:21;;;;;;;2.40;1.00;;;21.40;1.00;;;;;;5071488;28;20427;-79
2021/08/16 10:06:49;;;;;;;3.23;1.30;;;21.40;1.00;;;;;;5071128;28;20437;-79
2021/08/16 10:09:16;;;;;;;1.30;1.10;;;21.40;1.00;;;;;;5072083;28;20503;-79
2021/08/16 10:11:42;;;;;;;4.63;1.33;;;21.70;1.00;;;;;;5072996;28;20844;-79
2021/08/16 10:14:08;;;;;;;3.80;1.27;;;21.70;1.00;;;;;;5068990;28;20451;-79
2021/08/16 10:16:39;;;;;;;5.73;1.30;;;21.80;1.00;;;;;;5060543;28;20412;-80
2021/08/16 10:19:09;;;;;;;5.07;1.23;;;22.00;1.00;;;;;;5073622;28;20535;-80
2021/08/16 10:21:39;;;;;;;3.47;1.53;;;22.00;1.00;;;;;;5059693;28;20912;-80
2021/08/16 10:24:18;;;;;;;2.67;1.20;;;22.30;1.00;;;;;;5074799;28;20416;-80
2021/08/16 10:26:59;;;;;;;2.13;1.10;;;22.50;1.00;;;;;;5068395;28;20419;-78
2021/08/16 10:29:25;;;;;;;1.83;1.10;;;22.50;1.00;;;;;;5070130;28;20440;-79
2021/08/16 10:31:52;;;;;;;4.70;1.30;;;22.50;1.00;;;;;;5068960;28;20548;-78
2021/08/16 10:34:34;;;;;;;2.50;1.20;;;22.40;1.00;;;;;;5080293;28;21118;-78
2021/08/16 10:37:10;;;;;;;4.17;1.60;;;22.60;1.00;;;;;;5074821;28;20425;-78
2021/08/16 10:39:46;;;;;;;1.93;1.30;;;22.80;1.00;;;;;;5057005;28;20548;-78
2021/08/16 10:42:31;;;;;;;3.60;1.60;;;23.00;1.00;;;;;;5057146;28;20399;-79
2021/08/16 10:45:03;;;;;;;2.23;1.20;;;23.00;1.00;;;;;;5056772;28;20388;-79
2021/08/16 10:47:38;;;;;;;6.20;1.63;;;23.20;1.00;;;;;;5060561;28;20459;-79
2021/08/16 10:50:11;;;;;;;3.23;1.27;;;23.40;1.00;;;;;;5076839;28;20886;-79
2021/08/16 10:52:43;;;;;;;10.87;1.53;;;23.40;1.00;;;;;;5056970;28;20407;-81
2021/08/16 10:55:17;;;;;;;2.30;1.20;;;23.00;1.00;;;;;;5056339;28;20816;-80
2021/08/16 10:57:45;;;;;;;5.83;1.53;;;;;;;;;;5083380;28;20443;-78
2021/08/16 11:00:13;;;;;;;2.20;1.47;;;22.60;1.00;;;;;;5059963;28;20407;-78
2021/08/16 11:02:44;;;;;;;5.87;1.53;;;22.50;1.00;;;;;;5076032;28;20758;-78
2021/08/16 11:05:14;;;;;;;7.63;1.73;;;22.00;1.00;;;;;;5076295;28;20427;-79
2021/08/16 11:07:41;;;;;;;2.73;1.60;;;21.90;1.00;;;;;;5067154;28;20481;-78
2021/08/16 11:10:09;;;;;;;2.93;1.50;;;21.90;1.00;;;;;;5056745;28;20891;-79
2021/08/16 11:12:43;;;;;;;5.30;1.47;;;22.00;1.00;;;;;;5056659;28;20515;-78
2021/08/16 11:15:19;;;;;;;7.23;1.50;;;22.00;1.00;;;;;;5056349;28;20460;-78
2021/08/16 11:17:45;;;;;;;9.13;2.00;;;22.00;1.00;;;;;;5055698;28;20454;-78
2021/08/16 11:20:16;;;;;;;6.40;1.93;;;22.30;1.00;;;;;;5055874;28;20489;-78
2021/08/16 11:22:51;;;;;;;2.80;1.60;;;22.50;1.00;;;;;;5067378;28;20174;-78
2021/08/16 11:25:16;;;;;;;6.87;2.00;;;22.60;1.00;;;;;;5055424;28;20431;-78
2021/08/16 11:27:43;;;;;;;7.20;2.13;;;22.60;1.00;;;;;;5054590;28;20410;-79
2021/08/16 11:30:11;;;;;;;4.10;1.57;;;22.50;1.00;;;;;;5053767;28;20194;-79
2021/08/16 11:32:39;;;;;;;2.07;1.30;;;22.50;1.00;;;;;;5068239;28;20915;-79
2021/08/16 11:35:06;;;;;;;4.20;2.60;;;22.50;1.00;;;;;;5073891;28;20850;-78
2021/08/16 11:37:35;;;;;;;6.07;1.60;;;22.50;1.00;;;;;;5073749;28;20489;-79
2021/08/16 11:40:02;;;;;;;3.37;1.80;;;22.50;1.00;;;;;;5074134;28;20417;-79
2021/08/16 11:42:28;;;;;;;1.73;1.63;;;23.00;1.00;;;;;;5062241;28;20749;-80
2021/08/16 11:45:04;;;;;;;7.90;1.63;;;23.30;1.00;;;;;;5065855;28;20488;-81
2021/08/16 11:47:42;;;;;;;22.40;2.43;;;24.00;1.00;;;;;;5073587;28;20202;-81
2021/08/16 11:50:10;;;;;;;2.83;1.50;;;24.10;1.00;;;;;;5073281;28;20870;-81
2021/08/16 11:52:36;;;;;;;4.63;1.67;;;24.40;1.00;;;;;;5064744;28;20394;-81
2021/08/16 11:55:06;;;;;;;3.57;1.57;;;24.80;1.00;;;;;;5074617;28;20451;-81
2021/08/16 11:57:33;;;;;;;3.70;1.50;;;24.80;1.00;;;;;;5074458;28;20455;-79
2021/08/16 11:59:59;;;;;;;5.13;1.90;;;;;;;;;;5074808;28;20399;-79
2021/08/16 12:02:33;;;;;;;4.87;1.70;;;24.10;1.00;;;;;;5072727;28;20427;-78
2021/08/16 12:05:00;;;;;;;3.23;1.60;;;;;;;;;;5072454;28;20892;-78
2021/08/16 12:07:27;;;;;;;4.30;1.60;;;23.80;1.00;;;;;;5059932;28;20431;-79
2021/08/16 12:09:54;;;;;;;3.80;1.70;;;23.30;1.00;;;;;;5062915;28;20442;-79
2021/08/16 12:12:24;;;;;;;2.40;1.80;;;23.30;1.00;;;;;;5058396;28;20438;-79
2021/08/16 12:15:09;;;;;;;4.20;1.90;;;23.10;1.00;;;;;;5074397;28;20416;-79
2021/08/16 12:17:35;;;;;;;3.87;1.70;;;23.00;1.00;;;;;;5064238;28;20464;-79
2021/08/16 12:20:07;;;;;;;4.90;1.60;;;22.90;1.00;;;;;;5069915;28;20420;-79
2021/08/16 12:22:34;;;;;;;6.60;1.13;;;23.00;1.00;;;;;;5090504;28;20413;-78
2021/08/16 12:25:07;;;;;;;2.90;1.23;;;23.00;1.00;;;;;;5085766;28;20419;-79
2021/08/16 12:27:34;;;;;;;3.23;1.53;;;23.00;1.00;;;;;;5065722;28;20845;-81
2021/08/16 12:29:59;;;;;;;2.57;1.20;;;22.90;1.00;;;;;;5054169;28;20421;-81
2021/08/16 12:32:30;;;;;;;2.03;1.23;;;23.00;1.00;;;;;;5060513;28;20438;-81
2021/08/16 12:34:58;;;;;;;2.53;1.27;;;23.20;1.00;;;;;;5073904;28;20199;-80
2021/08/16 12:37:27;;;;;;;2.43;1.40;;;23.30;1.00;;;;;;5073986;28;20436;-80
2021/08/16 12:40:04;;;;;;;5.27;1.50;;;23.30;1.00;;;;;;5072662;28;20979;-81
2021/08/16 12:42:30;;;;;;;4.10;1.33;;;23.10;1.00;;;;;;5057871;28;21011;-81
2021/08/16 12:45:03;;;;;;;3.13;1.30;;;23.10;1.00;;;;;;5062235;28;20504;-81
2021/08/16 12:47:32;;;;;;;1.73;1.40;;;23.10;1.00;;;;;;5073886;28;20241;-81
2021/08/16 12:50:02;;;;;;;3.03;1.33;;;23.00;1.00;;;;;;5073628;28;20401;-80
2021/08/16 12:52:28;;;;;;;1.57;1.10;;;22.80;1.00;;;;;;5057436;28;20448;-81
2021/08/16 12:54:54;;;;;;;4.70;1.80;;;22.70;1.00;;;;;;5055246;28;20444;-81
2021/08/16 12:57:20;;;;;;;3.93;1.00;;;;;;;;;;5072597;28;20557;-79
2021/08/16 13:00:02;;;;;;;3.63;1.20;;;22.70;1.00;;;;;;5064435;28;20458;-78
2021/08/16 13:02:32;;;;;;;6.33;1.30;;;22.80;1.00;;;;;;5064842;28;20442;-79
2021/08/16 13:05:08;;;;;;;2.07;1.30;;;23.10;1.00;;;;;;5066322;28;20432;-79
2021/08/16 13:07:34;;;;;;;3.40;1.50;;;23.60;1.00;;;;;;5075365;28;20540;-79
2021/08/16 13:10:14;;;;;;;1.50;1.00;;;23.70;1.00;;;;;;5066200;28;20545;-79
2021/08/16 13:12:45;;;;;;;1.03;0.93;;;24.00;1.00;;;;;;5062086;28;20693;-79
2021/08/16 13:15:39;;;;;;;4.73;1.13;;;24.40;1.00;;;;;;5058766;28;20974;-79
2021/08/16 13:18:14;;;;;;;1.83;1.53;;;24.40;1.00;;;;;;5060702;28;20484;-80
2021/08/16 13:20:57;;;;;;;1.40;0.93;;;24.30;1.00;;;;;;5072679;28;20410;-79
2021/08/16 13:23:32;;;;;;;5.53;1.33;;;24.30;1.00;;;;;;5073783;28;20425;-79
2021/08/16 13:26:08;;;;;;;3.87;1.10;;;24.30;1.00;;;;;;5085005;28;20428;-79
2021/08/16 13:28:50;;;;;;;4.57;1.10;;;24.40;1.00;;;;;;5052722;28;20431;-80
2021/08/16 13:31:26;;;;;;;1.47;1.00;;;24.50;1.00;;;;;;5061642;28;20790;-80
2021/08/16 13:34:25;;;;;;;4.00;1.10;;;24.60;1.00;;;;;;5073903;28;20811;-81